Time;durP1;ratioP1;P1;durP2;ratioP2;P2;SDS_P1;SDS_P2;PMS_P1;PMS_P2;Temp;Humidity;BMP_temperature;BMP_pressure;BME280_temperature;BME280_humidity;BME280_pressure;Samples;Min_cycle;Max_cycle;Signal;HPM_P1;HPM_P2
2023/10/11 00:00:46;;;;;;;15.95;5.15;;;13.40;61.90;;;;;;5088514;28;20070;-62
2023/10/11 00:03:16;;;;;;;10.63;4.70;;;13.30;61.90;;;;;;5096640;28;20019;-61
2023/10/11 00:05:43;;;;;;;11.80;5.35;;;13.30;62.00;;;;;;5093574;28;20028;-61
2023/10/11 00:08:13;;;;;;;11.25;4.95;;;13.30;62.10;;;;;;5088758;28;20020;-61
2023/10/11 00:10:53;;;;;;;12.18;5.07;;;13.30;62.10;;;;;;5089293;28;20028;-61
2023/10/11 00:13:19;;;;;;;16.13;4.82;;;13.30;62.10;;;;;;5084171;28;20082;-63
2023/10/11 00:15:50;;;;;;;12.18;5.15;;;13.30;62.10;;;;;;5089726;28;20093;-60
2023/10/11 00:18:21;;;;;;;13.70;5.22;;;13.30;62.30;;;;;;5085450;28;20020;-60
2023/10/11 00:20:51;;;;;;;10.98;4.78;;;13.20;62.60;;;;;;5091282;28;20061;-62
2023/10/11 00:23:21;;;;;;;10.88;5.15;;;13.20;62.60;;;;;;5087394;28;20031;-61
2023/10/11 00:25:49;;;;;;;14.30;4.82;;;13.10;62.40;;;;;;5092790;28;20055;-62
2023/10/11 00:28:15;;;;;;;16.60;5.47;;;13.40;62.40;;;;;;5069276;28;20069;-61
2023/10/11 00:30:45;;;;;;;12.18;5.45;;;13.10;62.10;;;;;;5090488;28;20028;-61
2023/10/11 00:33:12;;;;;;;11.25;4.72;;;13.10;62.20;;;;;;5089798;28;20023;-60
2023/10/11 00:35:48;;;;;;;15.73;4.85;;;13.00;62.30;;;;;;5069424;28;20032;-62
2023/10/11 00:38:20;;;;;;;10.77;4.70;;;13.00;62.80;;;;;;5084810;28;20776;-60
2023/10/11 00:41:00;;;;;;;12.68;4.95;;;13.00;62.60;;;;;;5088295;28;20051;-62
2023/10/11 00:43:41;;;;;;;11.38;5.05;;;12.90;62.40;;;;;;5088943;28;20031;-60
2023/10/11 00:46:09;;;;;;;12.25;5.30;;;12.90;63.20;;;;;;5086859;28;20075;-61
2023/10/11 00:48:51;;;;;;;11.68;5.13;;;12.90;62.60;;;;;;5092044;28;20058;-61
2023/10/11 00:51:36;;;;;;;12.73;5.45;;;12.90;63.00;;;;;;5087805;28;20453;-62
2023/10/11 00:54:02;;;;;;;;;;;12.80;62.80;;;;;;5081377;28;20036;-61
2023/10/11 00:56:34;;;;;;;10.02;4.43;;;12.90;63.20;;;;;;5088812;28;20056;-61
2023/10/11 00:59:14;;;;;;;10.95;4.13;;;12.80;62.10;;;;;;5096980;27;20048;-61
2023/10/11 01:01:42;;;;;;;12.30;4.50;;;12.80;62.60;;;;;;5087215;28;20450;-62
2023/10/11 01:04:09;;;;;;;12.82;4.75;;;12.70;62.40;;;;;;5089047;28;20032;-60
2023/10/11 01:06:35;;;;;;;16.33;5.07;;;12.70;62.70;;;;;;5088886;28;20530;-60
2023/10/11 01:09:18;;;;;;;12.85;4.65;;;12.70;62.90;;;;;;5087969;28;20107;-62
2023/10/11 01:11:45;;;;;;;9.60;4.68;;;12.60;62.90;;;;;;5088276;28;20031;-61
2023/10/11 01:14:11;;;;;;;12.23;5.20;;;12.60;63.00;;;;;;5091606;28;20088;-60
2023/10/11 01:16:37;;;;;;;9.13;5.32;;;12.60;63.20;;;;;;5090492;28;20477;-61
2023/10/11 01:19:11;;;;;;;11.80;5.13;;;12.60;63.40;;;;;;5091373;28;20028;-60
2023/10/11 01:21:39;;;;;;;10.02;5.13;;;12.60;63.50;;;;;;5085559;28;20032;-61
2023/10/11 01:24:09;;;;;;;11.20;4.45;;;12.50;63.40;;;;;;5087652;28;20032;-61
2023/10/11 01:26:35;;;;;;;13.60;5.07;;;12.50;63.40;;;;;;5083576;28;20047;-61
2023/10/11 01:29:01;;;;;;;16.67;5.57;;;12.50;63.40;;;;;;5089078;28;20433;-61
2023/10/11 01:31:32;;;;;;;10.23;5.20;;;12.50;63.40;;;;;;5085591;28;20482;-61
2023/10/11 01:33:58;;;;;;;10.30;4.45;;;12.50;63.60;;;;;;5088915;28;20024;-61
2023/10/11 01:36:26;;;;;;;11.05;5.00;;;12.50;63.60;;;;;;5085743;28;20028;-61
2023/10/11 01:38:52;;;;;;;7.75;4.18;;;12.50;63.70;;;;;;5087720;28;20025;-61
2023/10/11 01:41:26;;;;;;;10.98;4.55;;;12.50;63.80;;;;;;5085266;28;20028;-61
2023/10/11 01:43:53;;;;;;;13.30;5.15;;;12.50;64.20;;;;;;5089078;28;20355;-62
2023/10/11 01:46:27;;;;;;;14.40;5.32;;;12.50;64.00;;;;;;4979486;28;20040;-62
2023/10/11 01:48:56;;;;;;;9.68;4.70;;;12.50;64.10;;;;;;5093771;28;20519;-61
2023/10/11 01:51:26;;;;;;;15.15;5.05;;;12.50;64.40;;;;;;5089588;28;20039;-60
2023/10/11 01:53:57;;;;;;;9.20;4.80;;;12.50;64.40;;;;;;5084001;28;20518;-60
2023/10/11 01:56:25;;;;;;;11.55;5.15;;;12.50;64.50;;;;;;5084908;28;20104;-61
2023/10/11 01:58:52;;;;;;;12.40;5.40;;;12.50;64.40;;;;;;5088051;28;20111;-60
2023/10/11 02:01:25;;;;;;;15.30;5.32;;;12.50;64.40;;;;;;5104894;28;20038;-62
2023/10/11 02:03:53;;;;;;;13.15;5.22;;;12.50;64.70;;;;;;5089023;28;20497;-61
2023/10/11 02:06:23;;;;;;;10.18;4.85;;;12.50;64.40;;;;;;5069734;28;20115;-61
2023/10/11 02:08:50;;;;;;;12.35;5.00;;;12.60;64.50;;;;;;5094641;28;20028;-61
2023/10/11 02:11:16;;;;;;;9.80;5.35;;;12.60;64.40;;;;;;5092692;28;20020;-60
2023/10/11 02:13:44;;;;;;;16.60;5.10;;;12.60;64.50;;;;;;5067720;28;20523;-61
2023/10/11 02:16:11;;;;;;;12.90;5.15;;;12.60;64.80;;;;;;5090088;28;20397;-61
2023/10/11 02:18:39;;;;;;;10.57;4.90;;;12.60;64.60;;;;;;5092437;28;20016;-61
2023/10/11 02:21:06;;;;;;;10.65;4.93;;;12.60;64.60;;;;;;5088954;28;20688;-62
2023/10/11 02:23:42;;;;;;;10.15;5.00;;;12.60;64.60;;;;;;5091025;28;20109;-62
2023/10/11 02:26:16;;;;;;;9.68;4.60;;;12.60;64.60;;;;;;5090201;28;20047;-60
2023/10/11 02:28:43;;;;;;;8.75;4.35;;;12.60;64.50;;;;;;5088111;28;20052;-61
2023/10/11 02:31:12;;;;;;;12.57;4.97;;;12.60;64.40;;;;;;5094002;28;20028;-62
2023/10/11 02:33:39;;;;;;;14.30;4.85;;;12.60;64.40;;;;;;5072239;28;20032;-62
2023/10/11 02:36:08;;;;;;;9.38;4.63;;;12.60;64.50;;;;;;5091963;28;20028;-62
2023/10/11 02:38:39;;;;;;;12.98;4.70;;;12.60;64.60;;;;;;5088926;28;20517;-60
2023/10/11 02:41:05;;;;;;;17.23;5.32;;;12.60;64.60;;;;;;5090875;28;20031;-61
2023/10/11 02:43:47;;;;;;;12.73;5.45;;;12.60;64.60;;;;;;5091286;28;20020;-62
2023/10/11 02:46:13;;;;;;;11.65;5.53;;;12.60;64.70;;;;;;4999702;28;20374;-62
2023/10/11 02:48:45;;;;;;;12.07;5.78;;;12.60;64.70;;;;;;5073872;28;20031;-61
2023/10/11 02:51:17;;;;;;;14.02;6.15;;;12.60;64.90;;;;;;5087281;28;20053;-60
2023/10/11 02:53:46;;;;;;;13.82;5.43;;;12.60;64.90;;;;;;5091071;28;20068;-60
2023/10/11 02:56:13;;;;;;;14.82;6.20;;;12.60;65.10;;;;;;5092647;28;20039;-62
2023/10/11 02:58:39;;;;;;;10.63;4.82;;;12.60;64.90;;;;;;5084907;28;20012;-61
2023/10/11 03:01:14;;;;;;;14.05;5.88;;;12.60;64.90;;;;;;5094338;28;20031;-61
2023/10/11 03:03:41;;;;;;;12.73;5.47;;;12.60;65.00;;;;;;5085686;28;20028;-61
2023/10/11 03:06:08;;;;;;;15.25;5.00;;;12.60;65.00;;;;;;5087873;28;20044;-60
2023/10/11 03:08:34;;;;;;;15.45;5.75;;;12.70;65.10;;;;;;5087193;28;20016;-61
2023/10/11 03:11:04;;;;;;;16.83;5.63;;;12.60;65.20;;;;;;5090128;28;20155;-62
2023/10/11 03:13:41;;;;;;;12.88;6.18;;;12.70;65.30;;;;;;5088086;28;20024;-61
2023/10/11 03:16:13;;;;;;;9.98;5.50;;;12.60;65.30;;;;;;5085903;28;20031;-60
2023/10/11 03:18:39;;;;;;;14.25;5.68;;;12.60;65.30;;;;;;5087726;28;20062;-61
2023/10/11 03:21:16;;;;;;;17.90;5.38;;;12.70;65.40;;;;;;5089854;28;20020;-62
2023/10/11 03:23:47;;;;;;;14.20;5.53;;;12.70;66.00;;;;;;5070851;28;20059;-60
2023/10/11 03:26:33;;;;;;;11.85;5.68;;;12.70;65.30;;;;;;5084372;28;20521;-60
2023/10/11 03:29:05;;;;;;;14.50;5.95;;;12.70;65.40;;;;;;5085030;28;20127;-61
2023/10/11 03:31:40;;;;;;;11.15;5.25;;;12.70;65.20;;;;;;5087951;28;20545;-61
2023/10/11 03:34:12;;;;;;;11.70;5.32;;;12.70;65.40;;;;;;5086975;28;20024;-62
2023/10/11 03:36:51;;;;;;;13.15;5.28;;;12.60;65.20;;;;;;5085738;28;20032;-60
2023/10/11 03:39:31;;;;;;;10.57;5.00;;;12.60;66.00;;;;;;5090930;28;20028;-62
2023/10/11 03:42:07;;;;;;;11.10;5.57;;;12.70;65.30;;;;;;5087742;28;20043;-62
2023/10/11 03:44:36;;;;;;;12.02;5.03;;;12.60;65.20;;;;;;5087519;28;20020;-61
2023/10/11 03:47:08;;;;;;;12.00;5.68;;;12.70;65.20;;;;;;5001789;28;20036;-61
2023/10/11 03:49:49;;;;;;;11.63;5.43;;;12.60;65.40;;;;;;5090811;28;20042;-63
2023/10/11 03:54:49;;;;;;;11.75;5.30;;;12.60;65.20;;;;;;5089435;28;20470;-61
2023/10/11 03:57:17;;;;;;;18.17;5.60;;;12.60;65.20;;;;;;5083811;28;20028;-61
2023/10/11 03:59:48;;;;;;;11.98;5.43;;;12.60;65.30;;;;;;5090621;28;20571;-60
2023/10/11 04:02:16;;;;;;;11.30;5.50;;;12.60;65.40;;;;;;5091333;28;20028;-60
2023/10/11 04:04:42;;;;;;;10.60;5.68;;;12.60;65.40;;;;;;5092404;28;20484;-60
2023/10/11 04:07:12;;;;;;;11.93;5.32;;;12.60;65.50;;;;;;5087318;28;20043;-61
2023/10/11 04:09:39;;;;;;;12.70;4.82;;;12.50;65.40;;;;;;5085892;28;20057;-61
2023/10/11 04:12:05;;;;;;;10.20;5.10;;;12.60;65.60;;;;;;5090128;28;20047;-61
2023/10/11 04:14:47;;;;;;;10.30;5.18;;;12.50;65.60;;;;;;5093221;28;20069;-60
2023/10/11 04:19:54;;;;;;;11.35;5.20;;;12.50;65.60;;;;;;5096110;28;20044;-61
2023/10/11 04:22:31;;;;;;;10.43;4.78;;;12.50;65.60;;;;;;5089724;28;20028;-61
2023/10/11 04:24:57;;;;;;;13.65;5.57;;;12.50;65.50;;;;;;5084748;28;20040;-61
2023/10/11 04:29:51;;;;;;;17.25;6.25;;;12.40;65.40;;;;;;5090370;28;20104;-61
2023/10/11 04:32:45;;;;;;;13.02;5.72;;;12.40;65.50;;;;;;5088298;28;20035;-61
2023/10/11 04:35:36;;;;;;;14.32;6.05;;;12.40;65.50;;;;;;5082967;28;20048;-61
2023/10/11 04:38:02;;;;;;;12.38;5.90;;;12.40;65.50;;;;;;5086060;28;20743;-60
2023/10/11 04:43:04;;;;;;;10.02;5.53;;;12.40;65.40;;;;;;5093334;28;20096;-60
2023/10/11 04:45:44;;;;;;;11.50;5.60;;;12.30;65.60;;;;;;5088417;28;20503;-61
2023/10/11 04:48:29;;;;;;;15.50;5.13;;;12.30;65.50;;;;;;5090178;28;20466;-61
2023/10/11 04:51:04;;;;;;;13.85;5.10;;;12.30;65.40;;;;;;5085449;28;20066;-60
2023/10/11 04:53:37;;;;;;;14.07;5.25;;;12.30;65.30;;;;;;5087099;28;20368;-60
2023/10/11 04:58:52;;;;;;;9.85;4.93;;;12.20;65.30;;;;;;5087086;28;20046;-60
2023/10/11 05:01:24;;;;;;;12.50;5.43;;;12.20;65.30;;;;;;5087317;28;20063;-60
2023/10/11 05:03:59;;;;;;;11.35;5.13;;;12.20;65.40;;;;;;5086532;28;20110;-60
2023/10/11 05:06:31;;;;;;;11.98;5.43;;;12.10;65.30;;;;;;5070627;28;20027;-60
2023/10/11 05:14:29;;;;;;;10.07;5.25;;;12.00;65.20;;;;;;5018866;28;20034;-60
2023/10/11 05:17:16;;;;;;;11.30;5.32;;;12.00;65.40;;;;;;5023768;28;20093;-60
2023/10/11 05:19:46;;;;;;;15.15;5.22;;;12.00;65.60;;;;;;5025274;28;20060;-61
2023/10/11 05:32:54;;;;;;;12.23;5.75;;;11.90;66.10;;;;;;5022981;28;20053;-61
2023/10/11 05:51:39;;;;;;;;;;;11.80;66.10;;;;;;5090640;28;20086;-61
2023/10/11 05:54:09;;;;;;;11.75;4.07;;;11.90;66.60;;;;;;5080200;28;20385;-61
2023/10/11 05:56:38;;;;;;;12.35;4.45;;;11.90;65.80;;;;;;5087153;28;20026;-62
2023/10/11 05:59:05;;;;;;;11.82;4.07;;;11.90;66.00;;;;;;5096640;28;20054;-61
2023/10/11 06:01:31;;;;;;;10.98;4.80;;;11.80;66.20;;;;;;5090089;28;20043;-61
2023/10/11 06:03:57;;;;;;;15.77;4.93;;;11.80;66.40;;;;;;5088526;28;20024;-61
2023/10/11 06:06:26;;;;;;;14.80;5.57;;;11.80;66.60;;;;;;5094593;28;20032;-61
2023/10/11 06:08:52;;;;;;;16.33;5.22;;;11.80;66.90;;;;;;5082923;28;20032;-61
2023/10/11 06:11:24;;;;;;;8.15;4.40;;;11.90;67.10;;;;;;5078858;28;20479;-61
2023/10/11 06:13:52;;;;;;;13.65;5.20;;;11.90;67.20;;;;;;5087953;28;20066;-61
2023/10/11 06:16:20;;;;;;;13.35;4.53;;;11.90;67.10;;;;;;5089792;28;20030;-62
2023/10/11 06:18:55;;;;;;;11.48;4.97;;;12.00;67.20;;;;;;5089733;28;20432;-61
2023/10/11 06:21:31;;;;;;;13.32;4.88;;;12.00;67.40;;;;;;5086693;28;20439;-61
2023/10/11 06:23:58;;;;;;;17.58;4.88;;;12.00;67.50;;;;;;5090587;28;20169;-61
2023/10/11 06:26:52;;;;;;;11.38;5.43;;;12.10;67.50;;;;;;5089865;28;20060;-60
2023/10/11 06:29:18;;;;;;;15.48;4.88;;;12.10;67.60;;;;;;5090052;28;20060;-60
2023/10/11 06:31:44;;;;;;;19.33;5.05;;;12.20;67.60;;;;;;5093795;28;20032;-60
2023/10/11 06:34:17;;;;;;;19.92;5.63;;;12.20;67.60;;;;;;5092853;28;20107;-61
2023/10/11 06:36:48;;;;;;;14.40;5.45;;;12.30;67.90;;;;;;5088917;28;20382;-60
2023/10/11 06:42:14;;;;;;;21.85;5.82;;;12.40;67.60;;;;;;5089717;28;20392;-61
2023/10/11 06:45:16;;;;;;;21.37;5.70;;;12.50;67.80;;;;;;5090257;28;20040;-61
2023/10/11 06:47:42;;;;;;;17.20;5.53;;;12.60;68.30;;;;;;5028158;28;21270;-61
2023/10/11 06:50:11;;;;;;;29.30;6.05;;;12.70;67.40;;;;;;5090965;28;20039;-61
2023/10/11 06:52:45;;;;;;;16.08;5.63;;;12.70;67.60;;;;;;5076840;28;20023;-61
2023/10/11 06:55:18;;;;;;;18.30;5.80;;;12.80;67.80;;;;;;5106678;27;20049;-61
2023/10/11 06:57:50;;;;;;;14.32;5.38;;;12.90;67.60;;;;;;5091865;28;20036;-61
2023/10/11 07:00:21;;;;;;;16.77;5.60;;;13.00;67.60;;;;;;5090384;28;20119;-62
2023/10/11 07:03:21;;;;;;;12.00;5.55;;;13.10;67.50;;;;;;5080936;28;20614;-62
2023/10/11 07:05:56;;;;;;;14.80;5.65;;;13.20;68.00;;;;;;5078807;28;20048;-61
2023/10/11 07:08:31;;;;;;;18.33;5.57;;;13.30;68.10;;;;;;5084130;28;20081;-61
2023/10/11 07:11:02;;;;;;;13.75;5.38;;;13.40;67.20;;;;;;5082281;28;20032;-61
2023/10/11 07:16:13;;;;;;;12.63;5.15;;;13.60;67.10;;;;;;5089969;28;20054;-61
2023/10/11 07:18:43;;;;;;;15.18;5.28;;;13.80;67.00;;;;;;5069767;28;20386;-61
2023/10/11 07:21:09;;;;;;;14.88;5.68;;;13.90;66.90;;;;;;5093600;28;20107;-60
2023/10/11 07:23:46;;;;;;;10.30;5.55;;;14.00;66.90;;;;;;5090837;28;20024;-61
2023/10/11 07:28:59;;;;;;;16.48;5.85;;;14.30;66.60;;;;;;5083788;28;20021;-62
2023/10/11 07:31:32;;;;;;;24.40;5.90;;;14.40;66.30;;;;;;5087295;28;20134;-60
2023/10/11 07:34:05;;;;;;;18.55;5.78;;;14.60;66.20;;;;;;5087311;28;20076;-61
2023/10/11 07:36:32;;;;;;;17.10;6.35;;;14.70;66.00;;;;;;5076260;28;20393;-60
2023/10/11 07:39:10;;;;;;;18.58;6.30;;;14.80;65.70;;;;;;5089202;28;20024;-61
2023/10/11 07:41:42;;;;;;;16.70;5.68;;;15.00;65.50;;;;;;5068908;28;20024;-61
2023/10/11 07:44:10;;;;;;;20.98;5.88;;;15.20;65.30;;;;;;5089011;28;20086;-61
2023/10/11 07:46:39;;;;;;;15.10;6.15;;;15.30;65.00;;;;;;5087521;28;20745;-62
2023/10/11 07:49:06;;;;;;;15.32;6.10;;;15.40;64.70;;;;;;5087202;28;20028;-61
2023/10/11 07:51:39;;;;;;;19.50;6.03;;;15.60;64.40;;;;;;5087377;28;20068;-61
2023/10/11 07:54:19;;;;;;;14.32;5.82;;;15.70;64.20;;;;;;5087387;28;20477;-61
2023/10/11 07:56:49;;;;;;;20.08;5.78;;;15.90;64.20;;;;;;5086432;28;20027;-62
2023/10/11 07:59:15;;;;;;;13.93;6.00;;;16.00;63.90;;;;;;5084223;28;20031;-62
2023/10/11 08:01:43;;;;;;;17.83;6.25;;;16.20;63.70;;;;;;5082895;28;20020;-62
2023/10/11 08:04:17;;;;;;;14.77;5.95;;;16.30;63.40;;;;;;5090156;28;20055;-61
2023/10/11 08:06:44;;;;;;;19.75;6.45;;;16.40;63.10;;;;;;5073687;28;20074;-61
2023/10/11 08:09:18;;;;;;;15.15;6.15;;;16.60;63.10;;;;;;5083132;28;20028;-62
2023/10/11 08:11:52;;;;;;;16.48;6.82;;;16.70;62.80;;;;;;5080579;28;20456;-60
2023/10/11 08:14:22;;;;;;;15.57;7.10;;;16.90;62.50;;;;;;5094498;28;20034;-62
2023/10/11 08:16:52;;;;;;;16.98;6.30;;;17.00;62.40;;;;;;5089556;28;20024;-62
2023/10/11 08:19:18;;;;;;;11.88;5.68;;;17.20;62.10;;;;;;5089887;28;20378;-61
2023/10/11 08:21:47;;;;;;;14.18;6.43;;;17.30;62.10;;;;;;5085845;28;20032;-62
2023/10/11 08:24:15;;;;;;;20.85;7.47;;;17.50;61.80;;;;;;5089707;28;20046;-61
2023/10/11 08:26:45;;;;;;;18.90;6.97;;;17.70;61.70;;;;;;5087597;28;20064;-61
2023/10/11 08:29:27;;;;;;;20.27;6.85;;;17.80;61.40;;;;;;5088524;28;20035;-60
2023/10/11 08:31:56;;;;;;;18.85;7.05;;;18.00;61.00;;;;;;5084813;28;20028;-62
2023/10/11 08:34:22;;;;;;;17.80;6.68;;;18.10;60.80;;;;;;5090043;28;20065;-62
2023/10/11 08:36:48;;;;;;;11.68;6.22;;;18.30;60.60;;;;;;5086111;28;20028;-62
2023/10/11 08:39:14;;;;;;;17.90;7.15;;;18.40;60.60;;;;;;5083413;28;20111;-61
2023/10/11 08:41:43;;;;;;;18.17;6.38;;;18.60;60.50;;;;;;5090159;28;20030;-61
2023/10/11 08:44:15;;;;;;;17.25;5.85;;;18.80;60.40;;;;;;5088754;28;20016;-61
2023/10/11 08:46:51;;;;;;;16.30;6.03;;;18.90;60.10;;;;;;4987538;28;20040;-62
2023/10/11 08:49:17;;;;;;;13.00;5.60;;;19.10;60.10;;;;;;5069611;28;20453;-62
2023/10/11 08:51:43;;;;;;;23.27;6.57;;;19.30;60.10;;;;;;5086107;28;20056;-61
2023/10/11 08:54:16;;;;;;;15.05;5.32;;;19.50;59.80;;;;;;5085264;28;20061;-61
2023/10/11 08:56:54;;;;;;;15.98;5.63;;;19.60;59.50;;;;;;5084837;28;20450;-62
2023/10/11 08:59:30;;;;;;;16.90;5.35;;;19.80;59.30;;;;;;5090406;28;20465;-62
2023/10/11 09:02:06;;;;;;;16.08;5.78;;;20.00;59.20;;;;;;5087566;28;20028;-62
2023/10/11 09:04:35;;;;;;;16.35;5.95;;;20.20;58.90;;;;;;5086769;28;20035;-62
2023/10/11 09:07:01;;;;;;;17.35;5.97;;;20.40;58.80;;;;;;5086402;28;20077;-62
2023/10/11 09:09:38;;;;;;;19.48;6.38;;;20.50;58.70;;;;;;5085588;28;20036;-61
2023/10/11 09:12:23;;;;;;;16.10;5.55;;;20.60;58.30;;;;;;5085742;28;20032;-62
2023/10/11 09:15:00;;;;;;;11.57;5.60;;;20.80;58.50;;;;;;5084844;28;20040;-62
2023/10/11 09:17:38;;;;;;;17.17;5.90;;;21.00;57.80;;;;;;5084470;28;20726;-63
2023/10/11 09:20:15;;;;;;;19.85;5.25;;;21.20;57.90;;;;;;5084832;28;20107;-63
2023/10/11 09:22:47;;;;;;;19.58;5.80;;;21.40;57.80;;;;;;5086139;28;20028;-62
2023/10/11 09:25:33;;;;;;;19.30;5.32;;;21.60;57.10;;;;;;5087453;28;20047;-62
2023/10/11 09:27:59;;;;;;;18.00;5.93;;;21.70;57.40;;;;;;5086914;28;20482;-63
2023/10/11 09:30:27;;;;;;;21.77;5.65;;;21.90;57.10;;;;;;5090633;28;20068;-63
2023/10/11 09:32:59;;;;;;;18.42;5.53;;;22.10;57.10;;;;;;5080857;28;20032;-62
2023/10/11 09:35:27;;;;;;;13.60;5.38;;;22.30;56.80;;;;;;5088544;28;20055;-63
2023/10/11 09:37:57;;;;;;;21.55;5.95;;;22.50;56.70;;;;;;5087247;28;20020;-63
2023/10/11 09:40:30;;;;;;;15.15;5.18;;;22.60;56.30;;;;;;5085156;28;20020;-62
2023/10/11 09:43:00;;;;;;;20.13;5.78;;;22.80;55.90;;;;;;5085342;28;20146;-63
2023/10/11 09:45:41;;;;;;;12.70;4.55;;;23.00;56.00;;;;;;5078834;28;20063;-63
2023/10/11 09:48:15;;;;;;;16.83;4.50;;;23.20;55.60;;;;;;5047947;28;20043;-62
2023/10/11 09:50:41;;;;;;;22.92;5.28;;;23.30;55.60;;;;;;5091130;28;20035;-62
2023/10/11 09:53:14;;;;;;;21.77;5.43;;;23.50;55.20;;;;;;5081612;28;20144;-62
2023/10/11 09:55:52;;;;;;;13.82;4.70;;;23.70;54.60;;;;;;5083364;28;20492;-61
2023/10/11 09:58:31;;;;;;;15.85;5.00;;;23.80;54.40;;;;;;5089627;28;20117;-62
2023/10/11 10:01:23;;;;;;;15.52;4.50;;;24.00;54.00;;;;;;5084011;28;20030;-64
2023/10/11 10:03:52;;;;;;;14.00;5.20;;;24.10;53.40;;;;;;5088768;28;20032;-61
2023/10/11 10:06:18;;;;;;;13.70;4.03;;;24.20;54.30;;;;;;5081983;28;21608;-63
2023/10/11 10:09:23;;;;;;;16.67;4.35;;;24.40;53.80;;;;;;5089128;28;20028;-62
2023/10/11 10:12:06;;;;;;;16.13;4.45;;;24.50;52.70;;;;;;5081268;28;20028;-63
2023/10/11 10:14:35;;;;;;;15.93;4.47;;;24.70;52.80;;;;;;5083000;28;20040;-62
2023/10/11 10:17:13;;;;;;;20.15;4.00;;;24.80;53.20;;;;;;5085963;28;20285;-63
2023/10/11 10:19:42;;;;;;;14.15;4.32;;;24.90;52.20;;;;;;5085646;28;20055;-64
2023/10/11 10:22:17;;;;;;;13.57;4.30;;;25.00;52.60;;;;;;5087926;28;20065;-63
2023/10/11 10:24:44;;;;;;;20.50;4.45;;;25.20;51.80;;;;;;5088882;28;20044;-64
2023/10/11 10:27:33;;;;;;;13.60;4.75;;;25.30;51.90;;;;;;5080668;28;20524;-63
2023/10/11 10:30:06;;;;;;;12.93;4.28;;;25.40;51.50;;;;;;5086036;28;20393;-63
2023/10/11 10:32:32;;;;;;;20.92;4.72;;;25.60;51.60;;;;;;5085390;28;20059;-62
2023/10/11 10:35:19;;;;;;;20.45;4.93;;;25.70;51.50;;;;;;5091789;28;20492;-63
2023/10/11 10:37:51;;;;;;;15.23;4.43;;;25.80;51.20;;;;;;5090705;28;20028;-63
2023/10/11 10:40:25;;;;;;;13.38;4.63;;;25.90;50.50;;;;;;5089663;28;20020;-63
2023/10/11 10:43:09;;;;;;;14.45;4.63;;;26.00;51.10;;;;;;5087129;28;20422;-63
2023/10/11 10:45:35;;;;;;;16.45;4.65;;;26.10;50.40;;;;;;5092660;28;20485;-63
2023/10/11 10:48:16;;;;;;;15.25;4.57;;;26.20;50.80;;;;;;5093520;28;20863;-64
2023/10/11 10:51:05;;;;;;;11.45;4.80;;;26.30;49.50;;;;;;5090691;28;20024;-63
2023/10/11 10:53:43;;;;;;;18.73;4.70;;;26.40;49.80;;;;;;5089094;28;20051;-63
2023/10/11 10:56:21;;;;;;;20.30;5.05;;;26.50;50.40;;;;;;5091692;28;20035;-63
2023/10/11 10:58:47;;;;;;;15.73;4.68;;;26.60;48.90;;;;;;5085942;28;20032;-63
2023/10/11 11:01:13;;;;;;;11.15;4.55;;;26.70;49.70;;;;;;5091518;28;20039;-63
2023/10/11 11:03:41;;;;;;;13.00;4.25;;;26.80;49.60;;;;;;5088489;28;20028;-62
2023/10/11 11:06:11;;;;;;;19.80;5.03;;;26.80;49.50;;;;;;5093450;28;20048;-62
2023/10/11 11:08:39;;;;;;;11.82;4.35;;;26.90;49.30;;;;;;5070584;28;20028;-63
2023/10/11 11:14:15;;;;;;;15.07;4.28;;;27.10;48.90;;;;;;5043661;28;20491;-62
2023/10/11 11:16:44;;;;;;;15.00;4.53;;;27.10;48.40;;;;;;5050666;28;20107;-62
2023/10/11 11:19:16;;;;;;;16.73;4.88;;;27.20;48.50;;;;;;5047409;28;20052;-63
2023/10/11 11:21:45;;;;;;;19.58;4.15;;;27.30;48.00;;;;;;5036258;28;20539;-62
2023/10/11 11:24:27;;;;;;;15.25;4.50;;;27.40;48.70;;;;;;5041827;28;20057;-62
2023/10/11 11:26:54;;;;;;;8.85;4.15;;;27.40;46.90;;;;;;5039181;28;20052;-63
2023/10/11 11:29:33;;;;;;;15.75;4.70;;;27.50;47.00;;;;;;5045786;28;20055;-64
2023/10/11 11:31:59;;;;;;;19.52;4.75;;;27.50;46.00;;;;;;5047155;28;20036;-63
2023/10/11 11:34:34;;;;;;;17.98;4.03;;;27.60;47.30;;;;;;5042740;28;20526;-63
2023/10/11 11:37:07;;;;;;;14.32;4.07;;;27.70;47.50;;;;;;5050920;28;20060;-64
2023/10/11 11:39:39;;;;;;;11.43;3.83;;;27.80;46.80;;;;;;5043112;28;20029;-63
2023/10/11 11:42:24;;;;;;;15.65;5.65;;;27.80;47.10;;;;;;5044743;28;20110;-63
2023/10/11 11:44:50;;;;;;;16.92;4.65;;;27.90;46.60;;;;;;5042897;28;20069;-62
2023/10/11 11:47:21;;;;;;;10.15;4.13;;;27.90;46.60;;;;;;5044825;28;20051;-65
2023/10/11 11:49:47;;;;;;;17.50;4.38;;;28.00;46.90;;;;;;5084452;28;20127;-63
2023/10/11 11:52:19;;;;;;;13.02;3.92;;;28.10;46.50;;;;;;5091928;28;20510;-63
2023/10/11 11:54:47;;;;;;;19.05;4.47;;;28.20;46.40;;;;;;5089577;28;20036;-63
2023/10/11 11:57:12;;;;;;;20.13;4.43;;;28.30;46.30;;;;;;5087845;28;20042;-64
2023/10/11 11:59:39;;;;;;;14.02;4.68;;;28.40;45.70;;;;;;5089464;28;20036;-63
2023/10/11 12:02:16;;;;;;;11.38;4.03;;;28.40;45.50;;;;;;5071722;28;20375;-62
2023/10/11 12:04:44;;;;;;;16.40;4.47;;;28.50;45.50;;;;;;5089712;28;20056;-63
2023/10/11 12:07:10;;;;;;;12.90;4.18;;;28.60;45.40;;;;;;5087107;28;20159;-63
2023/10/11 12:09:38;;;;;;;15.23;4.05;;;28.70;44.50;;;;;;5087705;28;20020;-64
2023/10/11 12:12:05;;;;;;;20.15;4.40;;;28.80;44.40;;;;;;5090759;28;20377;-63
2023/10/11 12:14:37;;;;;;;7.57;3.80;;;28.90;43.50;;;;;;5089818;28;20024;-64
2023/10/11 12:17:09;;;;;;;16.80;3.25;;;28.90;40.40;;;;;;5087918;28;20050;-63
2023/10/11 12:19:41;;;;;;;10.88;4.15;;;29.00;41.00;;;;;;5088397;28;20023;-63
2023/10/11 12:22:08;;;;;;;11.30;4.13;;;29.00;42.60;;;;;;5089473;28;20031;-64
2023/10/11 12:24:35;;;;;;;13.57;4.43;;;29.10;43.50;;;;;;5087143;28;20430;-64
2023/10/11 12:27:00;;;;;;;17.88;4.68;;;29.10;43.10;;;;;;5090347;28;20036;-64
2023/10/11 12:29:26;;;;;;;11.10;3.65;;;29.30;42.80;;;;;;5086628;28;20913;-63
2023/10/11 12:31:55;;;;;;;11.27;3.92;;;29.30;42.50;;;;;;5087243;28;20043;-63
2023/10/11 12:34:24;;;;;;;12.00;3.85;;;29.40;41.60;;;;;;5090732;28;20020;-63
2023/10/11 12:36:53;;;;;;;14.43;3.90;;;29.50;40.80;;;;;;5102556;28;20059;-64
2023/10/11 12:39:29;;;;;;;15.48;3.10;;;29.50;38.80;;;;;;5092788;28;20495;-63
2023/10/11 12:41:56;;;;;;;9.77;3.05;;;29.70;37.40;;;;;;5082574;28;20032;-62
2023/10/11 12:44:22;;;;;;;7.05;3.13;;;29.70;36.90;;;;;;5083724;28;20024;-63
2023/10/11 12:46:50;;;;;;;11.50;4.07;;;29.70;35.10;;;;;;4995950;28;20042;-65
2023/10/11 12:49:16;;;;;;;12.88;3.95;;;29.70;35.50;;;;;;5086671;28;20024;-64
2023/10/11 12:51:44;;;;;;;10.23;3.60;;;29.70;34.90;;;;;;5090069;28;20405;-64
2023/10/11 12:54:19;;;;;;;11.70;3.15;;;29.70;34.90;;;;;;5086799;28;20020;-65
2023/10/11 12:56:45;;;;;;;11.23;3.67;;;29.80;35.10;;;;;;5083657;28;20067;-63
2023/10/11 12:59:14;;;;;;;12.80;3.53;;;29.80;34.40;;;;;;5082893;28;20031;-64
2023/10/11 13:01:50;;;;;;;12.32;3.90;;;29.80;34.10;;;;;;5090648;28;20103;-63
2023/10/11 13:04:34;;;;;;;8.10;3.00;;;29.80;33.30;;;;;;5081308;28;20020;-65
2023/10/11 13:07:00;;;;;;;15.40;3.15;;;29.90;33.80;;;;;;5088083;28;20115;-64
2023/10/11 13:09:28;;;;;;;11.15;3.33;;;29.90;32.00;;;;;;5094976;28;20107;-64
2023/10/11 13:11:56;;;;;;;9.75;2.78;;;29.90;32.00;;;;;;5086767;28;20028;-65
2023/10/11 13:14:22;;;;;;;8.57;3.15;;;29.90;32.50;;;;;;5100197;27;20057;-64
2023/10/11 13:16:51;;;;;;;8.93;3.00;;;29.90;31.50;;;;;;5088394;28;20063;-63
2023/10/11 13:19:20;;;;;;;14.50;3.60;;;29.90;31.60;;;;;;5091492;28;20577;-63
2023/10/11 13:21:49;;;;;;;12.70;2.88;;;29.80;31.40;;;;;;5082981;28;20028;-63
2023/10/11 13:24:24;;;;;;;13.70;3.72;;;29.80;30.80;;;;;;5091859;28;20075;-64
2023/10/11 13:26:54;;;;;;;9.40;3.75;;;29.80;31.60;;;;;;5084956;28;20424;-63
2023/10/11 13:29:21;;;;;;;5.28;2.33;;;29.90;30.50;;;;;;5088765;28;20059;-64
2023/10/11 13:31:54;;;;;;;11.13;3.78;;;29.90;31.10;;;;;;5087733;28;20466;-64
2023/10/11 13:34:24;;;;;;;10.65;2.85;;;30.00;30.60;;;;;;5090971;28;20028;-63
2023/10/11 13:36:51;;;;;;;5.07;2.90;;;30.10;30.50;;;;;;5075105;28;20056;-62
2023/10/11 13:39:25;;;;;;;9.38;3.88;;;30.20;30.80;;;;;;5091858;28;20024;-63
2023/10/11 13:41:55;;;;;;;13.95;3.40;;;30.30;30.50;;;;;;5087828;28;20032;-64
2023/10/11 13:44:22;;;;;;;7.53;2.72;;;30.40;29.90;;;;;;5079555;28;20229;-63
2023/10/11 13:46:57;;;;;;;8.77;2.70;;;30.40;29.50;;;;;;5085148;28;20131;-63
2023/10/11 13:49:25;;;;;;;5.65;2.67;;;30.40;29.00;;;;;;5059712;28;20020;-64
2023/10/11 13:51:58;;;;;;;8.02;2.63;;;30.40;29.00;;;;;;5090051;28;20088;-64
2023/10/11 13:54:37;;;;;;;10.85;2.95;;;30.40;28.30;;;;;;5081732;28;20513;-64
2023/10/11 13:57:18;;;;;;;9.27;3.00;;;30.40;28.90;;;;;;5082028;28;20028;-63